createdAt,value
2023-05-08T00:00:30.573Z,78.39
2023-05-08T00:03:25.285Z,78.28
2023-05-08T00:06:04.890Z,78.27
2023-05-08T00:08:42.127Z,78.29
2023-05-08T00:11:18.535Z,77.96
2023-05-08T00:13:54.841Z,77.50
2023-05-08T00:16:31.518Z,77.10
2023-05-08T00:19:08.836Z,77.11
2023-05-08T00:21:45.192Z,77.23
2023-05-08T00:24:21.492Z,76.99
2023-05-08T00:26:57.827Z,77.03
2023-05-08T00:29:34.327Z,77.02
2023-05-08T00:32:11.621Z,77.06
2023-05-08T00:34:48.061Z,77.09
2023-05-08T00:37:24.543Z,77.19
2023-05-08T00:40:00.970Z,77.39
2023-05-08T00:42:37.480Z,77.45
2023-05-08T00:45:15.838Z,77.39
2023-05-08T00:47:52.772Z,77.52
2023-05-08T00:50:29.940Z,77.57
2023-05-08T00:53:07.801Z,77.63
2023-05-08T00:55:44.824Z,77.68
2023-05-08T00:58:21.865Z,77.75
2023-05-08T01:01:00.682Z,77.69
2023-05-08T01:03:39.161Z,77.70
2023-05-08T01:06:16.129Z,77.82
2023-05-08T01:08:52.840Z,77.83
2023-05-08T01:11:39.055Z,77.86
2023-05-08T01:14:33.529Z,78.02
2023-05-08T01:17:24.567Z,78.03
2023-05-08T01:20:22.264Z,78.03
2023-05-08T01:23:30.791Z,78.15
2023-05-08T01:26:59.427Z,78.31
2023-05-08T01:31:00.862Z,78.38
2023-05-08T01:33:47.803Z,78.41
2023-05-08T01:36:41.369Z,78.32
2023-05-08T01:39:29.331Z,78.24
2023-05-08T01:42:19.021Z,78.05
2023-05-08T01:45:02.377Z,78.10
2023-05-08T01:47:42.480Z,78.17
2023-05-08T01:50:27.125Z,77.96
2023-05-08T01:53:16.109Z,77.99
2023-05-08T01:56:01.153Z,77.96
2023-05-08T01:58:41.055Z,77.69
2023-05-08T02:01:20.114Z,77.65
2023-05-08T02:03:58.814Z,77.62
2023-05-08T02:06:37.718Z,77.68
2023-05-08T02:09:17.753Z,77.83
2023-05-08T02:11:56.659Z,77.93
2023-05-08T02:14:35.209Z,78.04
2023-05-08T02:17:13.751Z,77.99
2023-05-08T02:19:53.032Z,77.94
2023-05-08T02:22:31.612Z,77.65
2023-05-08T02:25:12.105Z,77.61
2023-05-08T02:27:51.744Z,77.62
2023-05-08T02:30:30.633Z,77.51
2023-05-08T02:33:12.010Z,77.29
2023-05-08T02:35:51.891Z,77.23
2023-05-08T02:38:30.750Z,77.09
2023-05-08T02:41:11.850Z,77.12
2023-05-08T02:43:48.236Z,77.16
2023-05-08T02:46:38.335Z,77.28
2023-05-08T02:49:34.203Z,77.22
2023-05-08T02:52:18.857Z,77.15
2023-05-08T02:55:05.996Z,77.16
2023-05-08T02:57:54.904Z,77.21
2023-05-08T03:00:39.042Z,77.15
2023-05-08T03:03:24.282Z,77.24
2023-05-08T03:06:03.995Z,77.16
2023-05-08T03:08:44.944Z,77.10
2023-05-08T03:11:27.206Z,77.22
2023-05-08T03:14:11.455Z,77.27
2023-05-08T03:16:52.479Z,77.32
2023-05-08T03:19:35.637Z,77.23
2023-05-08T03:22:20.404Z,77.16
2023-05-08T03:25:04.951Z,77.10
2023-05-08T03:27:43.535Z,77.22
2023-05-08T03:30:22.020Z,77.04
2023-05-08T03:33:09.850Z,77.10
2023-05-08T03:35:49.280Z,77.15
2023-05-08T03:38:26.176Z,77.09
2023-05-08T03:41:03.742Z,77.03
2023-05-08T03:43:43.345Z,77.07
2023-05-08T03:46:23.158Z,77.12
2023-05-08T03:49:01.302Z,77.07
2023-05-08T03:51:40.054Z,77.12
2023-05-08T03:54:17.121Z,77.19
2023-05-08T03:56:55.200Z,77.27
2023-05-08T04:00:01.344Z,77.29
2023-05-08T04:02:49.148Z,77.40
2023-05-08T04:05:37.846Z,77.38
2023-05-08T04:08:24.301Z,77.34
2023-05-08T04:11:27.211Z,77.32
2023-05-08T04:14:09.523Z,77.35
2023-05-08T04:16:54.894Z,77.27
2023-05-08T04:19:40.475Z,77.27
2023-05-08T04:22:19.235Z,77.13
2023-05-08T04:24:59.913Z,77.23
2023-05-08T04:27:37.750Z,77.29
2023-05-08T04:30:16.921Z,77.52
2023-05-08T04:32:55.238Z,77.42
2023-05-08T04:35:32.400Z,77.41
2023-05-08T04:38:08.987Z,77.30
2023-05-08T04:40:45.571Z,77.10
2023-05-08T04:43:22.329Z,77.11
2023-05-08T04:45:58.913Z,76.80
2023-05-08T04:48:35.334Z,76.69
2023-05-08T04:51:12.160Z,76.77
2023-05-08T04:53:48.396Z,76.80
2023-05-08T04:56:24.894Z,76.85
2023-05-08T04:59:01.433Z,76.53
2023-05-08T05:01:38.384Z,76.32
2023-05-08T05:04:14.894Z,76.38
2023-05-08T05:06:51.553Z,76.26
2023-05-08T05:09:27.771Z,76.16
2023-05-08T05:12:04.324Z,76.17
2023-05-08T05:14:40.882Z,75.85
2023-05-08T05:17:17.216Z,75.44
2023-05-08T05:19:53.771Z,75.51
2023-05-08T05:22:30.770Z,75.16
2023-05-08T05:25:08.173Z,74.90
2023-05-08T05:27:44.726Z,74.81
2023-05-08T05:30:22.758Z,74.24
2023-05-08T05:32:59.337Z,73.86
2023-05-08T05:35:36.159Z,74.10
2023-05-08T05:38:12.983Z,73.92
2023-05-08T05:40:49.727Z,73.68
2023-05-08T05:43:26.449Z,73.48
2023-05-08T05:46:09.022Z,73.40
2023-05-08T05:48:46.197Z,73.31
2023-05-08T05:51:23.726Z,73.35
2023-05-08T05:54:00.809Z,73.12
2023-05-08T05:56:37.468Z,73.00
2023-05-08T05:59:14.713Z,72.98
2023-05-08T06:01:51.796Z,73.03
2023-05-08T06:04:28.648Z,72.92
2023-05-08T06:07:05.642Z,72.83
2023-05-08T06:09:42.568Z,72.27
2023-05-08T06:12:20.488Z,71.93
2023-05-08T06:14:57.720Z,71.35
2023-05-08T06:17:34.683Z,71.11
2023-05-08T06:20:14.355Z,70.96
2023-05-08T06:22:51.770Z,71.42
2023-05-08T06:25:29.379Z,71.63
2023-05-08T06:28:08.069Z,72.31
2023-05-08T06:30:45.187Z,72.24
2023-05-08T06:33:23.649Z,71.13
2023-05-08T06:36:02.220Z,68.35
2023-05-08T06:38:40.209Z,67.67
2023-05-08T06:41:16.995Z,67.77
2023-05-08T06:43:53.591Z,67.91
2023-05-08T06:46:34.118Z,67.79
2023-05-08T06:49:11.185Z,68.46
2023-05-08T06:51:47.826Z,68.00
2023-05-08T06:54:24.495Z,66.38
2023-05-08T06:57:01.470Z,66.57
2023-05-08T06:59:38.402Z,66.00
2023-05-08T07:02:16.391Z,64.83
2023-05-08T07:04:52.832Z,63.40
2023-05-08T07:07:29.233Z,62.90
2023-05-08T07:10:07.812Z,63.28
2023-05-08T07:12:44.650Z,62.55
2023-05-08T07:15:26.389Z,62.66
2023-05-08T07:18:03.576Z,62.93
2023-05-08T07:20:40.108Z,63.50
2023-05-08T07:23:16.874Z,60.65
2023-05-08T07:25:54.634Z,60.16
2023-05-08T07:28:31.189Z,60.07
2023-05-08T07:31:10.228Z,60.43
2023-05-08T07:33:47.201Z,60.57
2023-05-08T07:36:24.177Z,60.87
2023-05-08T07:39:00.505Z,60.47
2023-05-08T07:41:37.285Z,60.90
2023-05-08T07:44:13.856Z,60.02
2023-05-08T07:46:50.187Z,60.15
2023-05-08T07:49:26.661Z,59.96
2023-05-08T07:52:03.494Z,61.47
2023-05-08T07:54:39.963Z,62.01
2023-05-08T07:57:16.393Z,62.01
2023-05-08T07:59:52.851Z,61.93
2023-05-08T08:02:29.481Z,61.44
2023-05-08T08:05:06.432Z,59.01
2023-05-08T08:07:42.931Z,58.69
2023-05-08T08:10:19.749Z,58.69
2023-05-08T08:12:56.120Z,58.39
2023-05-08T08:15:32.739Z,59.13
2023-05-08T08:18:09.668Z,58.19
2023-05-08T08:20:47.315Z,58.76
2023-05-08T08:23:23.991Z,58.64
2023-05-08T08:26:00.509Z,58.21
2023-05-08T08:28:36.817Z,58.04
2023-05-08T08:31:13.165Z,57.95
2023-05-08T08:33:49.966Z,59.13
2023-05-08T08:36:26.650Z,59.43
2023-05-08T08:39:03.813Z,59.08
2023-05-08T08:41:41.205Z,59.28
2023-05-08T08:44:17.470Z,57.87
2023-05-08T08:46:59.190Z,57.55
2023-05-08T08:49:47.599Z,57.20
2023-05-08T08:52:40.509Z,58.60
2023-05-08T08:55:21.688Z,57.41
2023-05-08T08:58:15.739Z,58.07
2023-05-08T09:00:55.226Z,57.70
2023-05-08T09:03:31.931Z,57.69
2023-05-08T09:06:09.286Z,57.63
2023-05-08T09:08:46.223Z,57.01
2023-05-08T09:11:22.860Z,56.88
2023-05-08T09:14:00.822Z,57.58
2023-05-08T09:16:37.950Z,57.20
2023-05-08T09:19:16.763Z,56.53
2023-05-08T09:21:54.342Z,57.41
2023-05-08T09:24:58.051Z,56.83
2023-05-08T09:27:36.455Z,57.00
2023-05-08T09:30:15.960Z,56.27
2023-05-08T09:33:02.520Z,56.92
2023-05-08T09:35:44.044Z,57.07
2023-05-08T09:41:21.952Z,57.59
2023-05-08T09:44:09.076Z,58.25
2023-05-08T09:46:46.775Z,58.80
2023-05-08T09:49:24.211Z,59.01
2023-05-08T09:52:00.660Z,58.99
2023-05-08T09:54:37.145Z,59.66
2023-05-08T09:57:18.893Z,59.74
2023-05-08T10:00:01.790Z,59.75
2023-05-08T10:02:39.378Z,58.71
2023-05-08T10:05:31.851Z,57.92
2023-05-08T10:08:26.985Z,58.73
2023-05-08T10:11:19.412Z,57.57
2023-05-08T10:13:55.639Z,56.45
2023-05-08T10:16:37.703Z,55.81
2023-05-08T10:19:18.166Z,56.27
2023-05-08T10:21:57.171Z,56.89
2023-05-08T10:24:38.490Z,57.52
2023-05-08T10:27:28.257Z,58.07
2023-05-08T10:30:11.258Z,58.00
2023-05-08T10:32:55.428Z,55.93
2023-05-08T10:35:32.744Z,56.24
2023-05-08T10:38:11.512Z,56.02
2023-05-08T10:40:50.670Z,55.62
2023-05-08T10:43:29.711Z,56.69
2023-05-08T10:46:16.633Z,55.72
2023-05-08T10:49:08.801Z,55.35
2023-05-08T11:18:48.519Z,54.68
2023-05-08T11:21:27.732Z,54.64
2023-05-08T11:24:13.247Z,54.66
2023-05-08T11:26:53.234Z,54.60
2023-05-08T11:29:30.006Z,54.27
2023-05-08T11:38:19.157Z,55.23
2023-05-08T11:41:10.819Z,55.53
2023-05-08T11:44:24.787Z,56.34
2023-05-08T11:47:06.551Z,56.20
2023-05-08T11:49:41.807Z,56.56
2023-05-08T11:52:23.677Z,56.23
2023-05-08T11:54:58.712Z,56.09
2023-05-08T11:58:00.877Z,56.79
2023-05-08T12:00:41.554Z,55.41
2023-05-08T12:03:21.392Z,56.28
2023-05-08T12:06:01.148Z,56.25
2023-05-08T12:08:41.765Z,54.83
2023-05-08T12:11:27.664Z,54.53
2023-05-08T12:14:04.635Z,54.81
2023-05-08T12:16:43.696Z,55.29
2023-05-08T12:19:20.333Z,56.03
2023-05-08T12:21:59.480Z,56.70
2023-05-08T12:24:36.335Z,56.37
2023-05-08T12:27:15.778Z,56.16
2023-05-08T12:29:53.999Z,55.52
2023-05-08T12:32:30.810Z,54.93
2023-05-08T12:35:08.761Z,55.54
2023-05-08T12:37:46.076Z,56.11
2023-05-08T12:40:36.293Z,55.40
2023-05-08T12:43:13.797Z,55.35
2023-05-08T12:45:53.799Z,55.33
2023-05-08T12:48:32.538Z,53.86
2023-05-08T12:51:12.132Z,53.50
2023-05-08T12:53:53.714Z,53.10
2023-05-08T12:56:34.013Z,52.83
2023-05-08T12:59:11.339Z,53.46
2023-05-08T13:01:55.259Z,53.12
2023-05-08T13:04:40.361Z,54.51
2023-05-08T13:07:18.012Z,54.75
2023-05-08T13:10:05.253Z,54.75
2023-05-08T13:12:41.927Z,54.30
2023-05-08T13:15:19.553Z,54.61
2023-05-08T13:17:57.374Z,53.97
2023-05-08T13:20:34.135Z,53.62
2023-05-08T13:23:12.294Z,51.96
2023-05-08T13:25:49.243Z,51.83
2023-05-08T13:28:25.673Z,51.85
2023-05-08T13:31:02.137Z,51.35
2023-05-08T13:33:39.330Z,51.35
2023-05-08T13:36:15.803Z,51.52
2023-05-08T13:38:54.898Z,51.18
2023-05-08T13:41:31.292Z,51.38
2023-05-08T13:44:07.844Z,50.80
2023-05-08T13:46:44.053Z,51.00
2023-05-08T13:49:22.224Z,50.39
2023-05-08T13:51:58.416Z,51.90
2023-05-08T13:54:35.421Z,50.93
2023-05-08T13:57:12.351Z,51.72
2023-05-08T13:59:52.445Z,52.08
2023-05-08T14:02:29.219Z,52.52
2023-05-08T14:05:08.199Z,52.03
2023-05-08T14:07:45.188Z,51.13
2023-05-08T14:10:21.960Z,51.75
2023-05-08T14:12:58.326Z,52.43
2023-05-08T14:15:37.283Z,52.48
2023-05-08T14:18:14.247Z,52.88
2023-05-08T14:20:57.489Z,53.16
2023-05-08T14:23:35.278Z,54.14
2023-05-08T14:26:11.861Z,53.05
2023-05-08T14:28:48.390Z,52.92
2023-05-08T14:31:24.986Z,52.60
2023-05-08T14:34:01.475Z,52.93
2023-05-08T14:36:38.000Z,52.91
2023-05-08T14:39:14.308Z,52.66
2023-05-08T14:42:14.204Z,52.25
2023-05-08T14:44:47.426Z,52.59
2023-05-08T14:47:24.705Z,52.22
2023-05-08T14:50:01.734Z,52.54
2023-05-08T14:52:38.200Z,52.14
2023-05-08T14:55:21.021Z,51.65
2023-05-08T14:57:57.685Z,51.41
2023-05-08T15:00:34.089Z,51.65
2023-05-08T15:03:10.927Z,51.71
2023-05-08T15:05:48.008Z,52.74
2023-05-08T15:08:24.464Z,52.95
2023-05-08T15:11:00.856Z,52.96
2023-05-08T15:13:37.115Z,51.97
2023-05-08T15:16:13.935Z,51.81
2023-05-08T15:18:50.378Z,52.28
2023-05-08T15:21:27.792Z,53.09
2023-05-08T15:24:04.215Z,53.20
2023-05-08T15:26:40.790Z,52.80
2023-05-08T15:29:17.160Z,53.07
2023-05-08T15:31:53.439Z,52.32
2023-05-08T15:34:32.811Z,51.86
2023-05-08T15:37:09.731Z,51.76
2023-05-08T15:39:46.390Z,51.38
2023-05-08T15:42:23.127Z,51.98
2023-05-08T15:45:02.916Z,51.31
2023-05-08T15:47:39.857Z,51.73
2023-05-08T15:50:17.675Z,51.84
2023-05-08T15:52:54.235Z,52.18
2023-05-08T15:55:30.738Z,52.12
2023-05-08T15:58:06.959Z,52.41
2023-05-08T16:00:45.188Z,52.38
2023-05-08T16:03:22.323Z,52.23
2023-05-08T16:05:58.869Z,51.64
2023-05-08T16:08:35.436Z,52.21
2023-05-08T16:11:12.037Z,52.70
2023-05-08T16:13:48.779Z,53.22
2023-05-08T16:16:25.234Z,53.88
2023-05-08T16:19:04.258Z,54.44
2023-05-08T16:21:40.474Z,54.37
2023-05-08T16:24:17.008Z,54.52
2023-05-08T16:26:53.570Z,55.15
2023-05-08T16:29:30.486Z,54.88
2023-05-08T16:32:07.877Z,55.45
2023-05-08T16:34:44.956Z,54.77
2023-05-08T16:37:21.427Z,53.93
2023-05-08T16:39:58.114Z,54.21
2023-05-08T16:42:34.454Z,53.97
2023-05-08T16:45:14.093Z,54.03
2023-05-08T16:47:51.180Z,54.10
2023-05-08T16:50:27.943Z,53.48
2023-05-08T16:53:05.039Z,54.03
2023-05-08T16:55:41.383Z,54.19
2023-05-08T16:58:17.717Z,54.13
2023-05-08T17:00:54.620Z,54.44
2023-05-08T17:03:30.989Z,54.55
2023-05-08T17:06:13.024Z,54.32
2023-05-08T17:08:47.925Z,54.66
2023-05-08T17:11:24.150Z,55.05
2023-05-08T17:14:00.564Z,55.27
2023-05-08T17:16:37.060Z,55.40
2023-05-08T17:19:13.495Z,55.72
2023-05-08T17:21:49.966Z,55.98
2023-05-08T17:24:26.631Z,55.86
2023-05-08T17:27:03.306Z,56.11
2023-05-08T17:29:40.094Z,56.46
2023-05-08T17:32:16.782Z,56.46
2023-05-08T17:34:53.532Z,57.03
2023-05-08T17:37:30.163Z,57.24
2023-05-08T17:40:08.244Z,57.54
2023-05-08T17:42:45.267Z,57.95
2023-05-08T17:45:22.225Z,58.38
2023-05-08T17:47:58.991Z,58.34
2023-05-08T17:50:36.915Z,58.56
2023-05-08T17:53:13.749Z,58.69
2023-05-08T17:55:50.423Z,58.98
2023-05-08T17:58:27.030Z,59.20
2023-05-08T18:01:03.689Z,59.52
2023-05-08T18:03:40.678Z,59.88
2023-05-08T18:06:21.194Z,60.17
2023-05-08T18:08:57.749Z,60.67
2023-05-08T18:11:34.191Z,60.84
2023-05-08T18:14:10.859Z,61.13
2023-05-08T18:16:47.356Z,61.39
2023-05-08T18:19:24.266Z,61.94
2023-05-08T18:22:00.968Z,62.13
2023-05-08T18:24:37.373Z,62.54
2023-05-08T18:27:14.050Z,62.93
2023-05-08T18:29:50.903Z,63.23
2023-05-08T18:32:27.500Z,63.67
2023-05-08T18:35:04.086Z,64.06
2023-05-08T18:37:41.910Z,64.35
2023-05-08T18:40:19.227Z,64.62
2023-05-08T18:42:56.965Z,64.98
2023-05-08T18:45:40.695Z,65.22
2023-05-08T18:48:18.521Z,65.49
2023-05-08T18:50:58.759Z,65.83
2023-05-08T18:53:38.414Z,66.39
2023-05-08T18:56:17.199Z,67.06
2023-05-08T18:58:54.892Z,67.59
2023-05-08T19:01:34.388Z,68.03
2023-05-08T19:04:11.763Z,68.17
2023-05-08T19:06:49.679Z,68.29
2023-05-08T19:09:26.265Z,68.56
2023-05-08T19:12:03.878Z,68.81
2023-05-08T19:14:41.413Z,68.93
2023-05-08T19:17:18.697Z,68.99
2023-05-08T19:19:56.215Z,68.86
2023-05-08T19:22:35.974Z,69.08
2023-05-08T19:25:14.644Z,69.03
2023-05-08T19:27:52.324Z,69.15
2023-05-08T19:30:29.891Z,69.41
2023-05-08T19:33:07.318Z,69.54
2023-05-08T19:35:48.591Z,69.90
2023-05-08T19:38:27.552Z,70.21
2023-05-08T19:41:04.512Z,70.44
2023-05-08T19:43:41.952Z,70.65
2023-05-08T19:46:20.562Z,70.80
2023-05-08T19:48:58.439Z,71.01
2023-05-08T19:51:36.104Z,71.43
2023-05-08T19:54:13.521Z,71.73
2023-05-08T19:56:50.591Z,71.91
2023-05-08T19:59:27.742Z,72.11
2023-05-08T20:02:05.404Z,72.46
2023-05-08T20:05:04.248Z,72.66
2023-05-08T20:07:40.198Z,72.75
2023-05-08T20:10:17.619Z,72.81
2023-05-08T20:12:54.748Z,72.88
2023-05-08T20:15:32.874Z,73.03
2023-05-08T20:18:10.429Z,73.06
2023-05-08T20:20:47.236Z,73.23
2023-05-08T20:23:24.139Z,73.48
2023-05-08T20:26:01.883Z,73.62
2023-05-08T20:28:38.871Z,73.83
2023-05-08T20:31:15.745Z,73.90
2023-05-08T20:33:52.953Z,74.06
2023-05-08T20:36:29.991Z,74.14
2023-05-08T20:39:07.423Z,74.25
2023-05-08T20:41:44.826Z,74.51
2023-05-08T20:44:21.790Z,74.57
2023-05-08T20:46:58.548Z,74.53
2023-05-08T20:49:36.509Z,74.59
2023-05-08T20:52:13.596Z,74.59
2023-05-08T20:54:50.699Z,74.78
2023-05-08T20:57:27.990Z,74.97
2023-05-08T21:00:05.528Z,74.99
2023-05-08T21:02:43.595Z,75.13
2023-05-08T21:05:20.639Z,75.29
2023-05-08T21:08:00.220Z,75.40
2023-05-08T21:10:37.450Z,75.44
2023-05-08T21:13:14.789Z,75.61
2023-05-08T21:15:54.468Z,75.79
2023-05-08T21:18:31.177Z,75.89
2023-05-08T21:21:17.230Z,76.04
2023-05-08T21:23:53.816Z,76.19
2023-05-08T21:26:30.201Z,76.46
2023-05-08T21:29:07.751Z,76.41
2023-05-08T21:31:44.399Z,76.44
2023-05-08T21:34:21.705Z,76.52
2023-05-08T21:36:58.079Z,76.64
2023-05-08T21:39:34.280Z,76.90
2023-05-08T21:42:11.438Z,77.00
2023-05-08T21:44:48.380Z,77.11
2023-05-08T21:47:28.226Z,77.33
2023-05-08T21:50:04.564Z,77.43
2023-05-08T21:52:41.082Z,77.58
2023-05-08T21:55:17.670Z,77.78
2023-05-08T21:57:54.223Z,77.90
2023-05-08T22:00:30.614Z,77.92
2023-05-08T22:03:07.201Z,78.03
2023-05-08T22:05:43.535Z,78.07
2023-05-08T22:08:19.927Z,78.10
2023-05-08T22:10:56.998Z,78.30
2023-05-08T22:13:33.652Z,78.40
2023-05-08T22:16:11.812Z,78.49
2023-05-08T22:18:48.335Z,78.52
2023-05-08T22:21:29.517Z,78.76
2023-05-08T22:24:07.049Z,78.81
2023-05-08T22:26:43.362Z,78.74
2023-05-08T22:29:19.823Z,78.72
2023-05-08T22:31:57.059Z,78.61
2023-05-08T22:34:33.593Z,78.61
2023-05-08T22:37:10.049Z,78.71
2023-05-08T22:39:47.129Z,78.80
2023-05-08T22:42:23.743Z,78.80
2023-05-08T22:45:00.889Z,78.89
2023-05-08T22:47:38.600Z,78.88
2023-05-08T22:50:18.236Z,78.96
2023-05-08T22:52:54.676Z,78.91
2023-05-08T22:55:31.459Z,78.92
2023-05-08T22:58:07.863Z,79.09
2023-05-08T23:00:44.406Z,79.27
2023-05-08T23:03:21.180Z,79.38
2023-05-08T23:05:57.663Z,79.45
2023-05-08T23:08:34.000Z,79.49
2023-05-08T23:11:10.379Z,79.61
2023-05-08T23:13:46.854Z,79.71
2023-05-08T23:16:23.356Z,79.77
2023-05-08T23:18:59.725Z,79.84
2023-05-08T23:21:36.119Z,80.02
2023-05-08T23:24:13.204Z,80.19
2023-05-08T23:26:49.892Z,80.14
2023-05-08T23:29:26.183Z,80.24
2023-05-08T23:32:02.827Z,80.50
2023-05-08T23:34:39.098Z,80.62
2023-05-08T23:37:15.478Z,80.82
2023-05-08T23:39:52.180Z,80.81
2023-05-08T23:42:28.930Z,80.94
2023-05-08T23:45:06.406Z,81.03
2023-05-08T23:47:42.745Z,81.07
2023-05-08T23:50:20.002Z,80.89
2023-05-08T23:52:56.342Z,80.83
2023-05-08T23:55:33.110Z,80.83
2023-05-08T23:58:09.611Z,80.84
